createdAt,value
2023-04-18T00:01:39.165Z,101239.13
2023-04-18T00:05:40.732Z,101240.84
2023-04-18T00:09:42.806Z,101239.13
2023-04-18T00:13:47.162Z,101242.59
2023-04-18T00:17:48.793Z,101239.75
2023-04-18T00:21:53.057Z,101239.69
2023-04-18T00:25:54.751Z,101236.94
2023-04-18T00:29:56.354Z,101233.28
2023-04-18T00:33:57.917Z,101233.22
2023-04-18T00:37:59.354Z,101227.84
2023-04-18T00:42:01.790Z,101227.75
2023-04-18T00:46:03.579Z,101233.00
2023-04-18T00:50:06.221Z,101230.41
2023-04-18T00:54:08.408Z,101230.41
2023-04-18T00:58:10.449Z,101229.53
2023-04-18T01:02:12.277Z,101229.66
2023-04-18T01:06:15.378Z,101234.03
2023-04-18T01:10:16.899Z,101222.34
2023-04-18T01:14:20.067Z,101222.16
2023-04-18T01:18:22.498Z,101225.72
2023-04-18T01:22:24.284Z,101227.50
2023-04-18T01:26:26.253Z,101224.81
2023-04-18T01:30:27.956Z,101220.44
2023-04-18T01:34:29.484Z,101223.41
2023-04-18T01:38:31.019Z,101221.47
2023-04-18T01:42:32.671Z,101219.88
2023-04-18T01:46:34.323Z,101224.50
2023-04-18T01:50:36.300Z,101222.63
2023-04-18T01:54:37.909Z,101222.69
2023-04-18T01:58:41.425Z,101227.94
2023-04-18T02:02:43.370Z,101227.84
2023-04-18T02:06:45.236Z,101216.47
2023-04-18T02:10:46.781Z,101222.88
2023-04-18T02:14:52.507Z,101217.81
2023-04-18T02:18:54.276Z,101213.56
2023-04-18T02:22:55.801Z,101223.38
2023-04-18T02:26:57.297Z,101219.91
2023-04-18T02:31:01.315Z,101227.03
2023-04-18T02:35:02.793Z,101231.59
2023-04-18T02:39:04.485Z,101215.94
2023-04-18T02:43:06.294Z,101215.31
2023-04-18T02:47:08.057Z,101216.91
2023-04-18T02:51:13.646Z,101222.19
2023-04-18T02:55:15.350Z,101227.50
2023-04-18T02:59:18.820Z,101223.94
2023-04-18T03:03:43.494Z,101230.03
2023-04-18T03:08:03.717Z,101232.91
2023-04-18T03:12:06.275Z,101238.34
2023-04-18T03:16:09.853Z,101241.13
2023-04-18T03:20:12.641Z,101232.41
2023-04-18T03:24:15.227Z,101238.56
2023-04-18T03:28:19.924Z,101239.53
2023-04-18T03:32:22.253Z,101244.66
2023-04-18T03:36:25.318Z,101235.97
2023-04-18T03:40:28.786Z,101235.19
2023-04-18T03:44:35.446Z,101231.00
2023-04-18T03:48:38.286Z,101235.47
2023-04-18T03:52:44.076Z,101243.41
2023-04-18T03:56:46.736Z,101244.31
2023-04-18T04:00:52.442Z,101247.13
2023-04-18T04:04:54.015Z,101245.41
2023-04-18T04:08:55.873Z,101257.94
2023-04-18T04:12:59.955Z,101256.41
2023-04-18T04:17:02.334Z,101255.63
2023-04-18T04:21:06.651Z,101261.84
2023-04-18T04:25:24.189Z,101254.75
2023-04-18T04:29:29.116Z,101262.75
2023-04-18T04:33:33.232Z,101269.88
2023-04-18T04:37:41.265Z,101278.03
2023-04-18T04:42:30.183Z,101277.88
2023-04-18T04:47:07.691Z,101275.94
2023-04-18T04:51:11.727Z,101290.19
2023-04-18T04:55:13.269Z,101295.41
2023-04-18T04:59:16.668Z,101296.22
2023-04-18T05:08:51.534Z,101294.44
2023-04-18T05:12:53.003Z,101296.34
2023-04-18T05:16:56.138Z,101303.25
2023-04-18T05:21:48.347Z,101304.97
2023-04-18T05:26:40.109Z,101310.47
2023-04-18T05:30:41.644Z,101311.47
2023-04-18T05:35:17.107Z,101314.00
2023-04-18T05:39:18.735Z,101306.81
2023-04-18T05:43:20.446Z,101320.94
2023-04-18T05:47:24.143Z,101323.69
2023-04-18T05:51:26.758Z,101315.84
2023-04-18T05:55:28.383Z,101318.50
2023-04-18T05:59:29.874Z,101317.19
2023-04-18T06:03:31.630Z,101324.28
2023-04-18T06:07:34.282Z,101324.06
2023-04-18T06:11:35.905Z,101327.22
2023-04-18T06:15:37.511Z,101327.34
2023-04-18T06:19:42.304Z,101321.72
2023-04-18T06:23:43.951Z,101331.38
2023-04-18T06:27:45.464Z,101336.53
2023-04-18T06:31:48.215Z,101348.38
2023-04-18T06:35:49.975Z,101351.94
2023-04-18T06:39:51.667Z,101352.66
2023-04-18T06:44:03.428Z,101353.34
2023-04-18T06:48:07.655Z,101345.91
2023-04-18T06:52:09.302Z,101350.03
2023-04-18T06:56:10.952Z,101350.22
2023-04-18T07:00:13.270Z,101350.81
2023-04-18T07:04:15.635Z,101346.47
2023-04-18T07:08:17.757Z,101342.69
2023-04-18T07:12:19.279Z,101342.59
2023-04-18T07:16:21.084Z,101349.72
2023-04-18T07:20:22.764Z,101349.00
2023-04-18T07:24:24.582Z,101362.13
2023-04-18T07:28:26.214Z,101356.06
2023-04-18T07:32:28.059Z,101366.47
2023-04-18T07:36:29.869Z,101363.72
2023-04-18T07:40:31.540Z,101361.81
2023-04-18T07:44:35.232Z,101364.63
2023-04-18T07:48:37.001Z,101360.59
2023-04-18T07:52:39.547Z,101365.88
2023-04-18T07:56:41.284Z,101373.78
2023-04-18T08:00:44.622Z,101372.47
2023-04-18T08:04:47.119Z,101366.50
2023-04-18T08:08:48.961Z,101366.34
2023-04-18T08:12:50.734Z,101368.13
2023-04-18T08:16:52.396Z,101359.13
2023-04-18T08:20:53.913Z,101366.84
2023-04-18T08:25:04.232Z,101361.66
2023-04-18T08:29:07.917Z,101374.91
2023-04-18T08:33:09.713Z,101377.72
2023-04-18T08:37:11.390Z,101374.50
2023-04-18T08:41:13.856Z,101376.22
2023-04-18T08:45:15.579Z,101372.91
2023-04-18T08:49:17.633Z,101368.47
2023-04-18T08:53:19.390Z,101368.44
2023-04-18T08:57:27.016Z,101378.31
2023-04-18T09:01:52.827Z,101378.59
2023-04-18T09:06:08.376Z,101379.78
2023-04-18T09:10:10.535Z,101373.75
2023-04-18T09:14:25.814Z,101379.44
2023-04-18T09:18:27.292Z,101375.09
2023-04-18T09:22:50.378Z,101384.25
2023-04-18T09:26:56.787Z,101381.56
2023-04-18T09:31:13.167Z,101372.31
2023-04-18T09:35:24.805Z,101378.13
2023-04-18T09:39:28.360Z,101386.47
2023-04-18T09:43:29.942Z,101385.88
2023-04-18T09:47:34.674Z,101384.41
2023-04-18T09:51:36.721Z,101391.84
2023-04-18T09:55:39.912Z,101390.19
2023-04-18T09:59:54.940Z,101390.19
2023-04-18T10:03:57.605Z,101383.78
2023-04-18T10:07:59.549Z,101381.00
2023-04-18T10:12:02.542Z,101387.22
2023-04-18T10:16:04.684Z,101385.50
2023-04-18T10:20:08.245Z,101375.91
2023-04-18T10:24:52.905Z,101381.81
2023-04-18T10:28:54.747Z,101373.94
2023-04-18T10:32:56.939Z,101382.50
2023-04-18T10:37:05.554Z,101381.06
2023-04-18T10:41:17.589Z,101372.53
2023-04-18T10:45:23.231Z,101381.06
2023-04-18T10:49:32.028Z,101380.16
2023-04-18T10:53:34.698Z,101372.69
2023-04-18T10:57:48.514Z,101373.06
2023-04-18T11:01:55.751Z,101373.19
2023-04-18T11:06:03.797Z,101375.03
2023-04-18T11:10:07.370Z,101382.56
2023-04-18T11:14:09.133Z,101384.66
2023-04-18T11:18:11.032Z,101375.75
2023-04-18T11:22:13.322Z,101380.63
2023-04-18T11:26:17.450Z,101382.28
2023-04-18T11:30:19.301Z,101379.84
2023-04-18T11:34:21.601Z,101380.84
2023-04-18T11:38:28.769Z,101379.97
2023-04-18T11:42:35.169Z,101372.88
2023-04-18T11:46:39.946Z,101381.88
2023-04-18T11:50:41.464Z,101381.69
2023-04-18T11:54:44.824Z,101379.47
2023-04-18T11:58:46.575Z,101378.16
2023-04-18T12:02:51.059Z,101381.56
2023-04-18T12:06:53.859Z,101383.13
2023-04-18T12:10:55.705Z,101384.81
2023-04-18T12:15:08.300Z,101385.38
2023-04-18T12:19:11.220Z,101387.97
2023-04-18T12:23:35.749Z,101381.03
2023-04-18T12:27:53.004Z,101385.97
2023-04-18T12:31:54.781Z,101386.34
2023-04-18T12:35:56.564Z,101381.44
2023-04-18T12:39:58.204Z,101386.34
2023-04-18T12:44:00.305Z,101375.00
2023-04-18T12:48:01.977Z,101378.31
2023-04-18T12:52:03.579Z,101381.03
2023-04-18T12:56:05.641Z,101381.13
2023-04-18T13:00:10.957Z,101386.75
2023-04-18T13:04:13.374Z,101382.91
2023-04-18T13:08:17.751Z,101379.34
2023-04-18T13:12:19.580Z,101378.78
2023-04-18T13:16:21.283Z,101382.91
2023-04-18T13:20:22.871Z,101376.69
2023-04-18T13:24:24.561Z,101381.72
2023-04-18T13:28:26.685Z,101370.97
2023-04-18T13:32:28.454Z,101369.88
2023-04-18T13:36:31.590Z,101371.19
2023-04-18T13:40:33.656Z,101381.06
2023-04-18T13:44:36.576Z,101378.59
2023-04-18T13:48:38.149Z,101380.09
2023-04-18T13:52:39.707Z,101372.28
2023-04-18T13:56:41.603Z,101373.88
2023-04-18T14:00:43.467Z,101370.34
2023-04-18T14:04:45.413Z,101374.78
2023-04-18T14:08:49.451Z,101375.47
2023-04-18T14:12:51.396Z,101371.88
2023-04-18T14:16:53.895Z,101366.16
2023-04-18T14:20:55.579Z,101367.78
2023-04-18T14:24:57.374Z,101371.09
2023-04-18T14:28:59.241Z,101371.34
2023-04-18T14:33:20.949Z,101367.63
2023-04-18T14:37:22.523Z,101370.81
2023-04-18T14:41:24.125Z,101372.47
2023-04-18T14:45:26.284Z,101361.63
2023-04-18T14:49:29.446Z,101360.44
2023-04-18T14:53:31.053Z,101360.63
2023-04-18T15:03:11.369Z,101361.78
2023-04-18T15:07:15.535Z,101362.63
2023-04-18T15:11:17.148Z,101359.34
2023-04-18T15:15:19.519Z,101357.53
2023-04-18T15:20:13.236Z,101359.38
2023-04-18T15:25:07.237Z,101359.78
2023-04-18T15:29:39.886Z,101358.03
2023-04-18T15:33:41.751Z,101358.31
2023-04-18T15:37:43.566Z,101366.06
2023-04-18T15:42:34.801Z,101355.88
2023-04-18T15:46:37.722Z,101360.91
2023-04-18T15:51:16.494Z,101351.41
2023-04-18T15:56:08.394Z,101355.81
2023-04-18T16:01:10.012Z,101362.19
2023-04-18T16:05:17.361Z,101354.34
2023-04-18T16:09:46.656Z,101352.81
2023-04-18T16:14:38.829Z,101356.34
2023-04-18T16:24:22.056Z,101355.41
2023-04-18T16:28:24.871Z,101362.38
2023-04-18T16:32:26.518Z,101355.28
2023-04-18T16:37:03.560Z,101348.38
2023-04-18T16:41:13.381Z,101354.50
2023-04-18T16:45:36.313Z,101350.09
2023-04-18T16:50:03.199Z,101343.31
2023-04-18T16:54:49.750Z,101347.00
2023-04-18T16:59:09.572Z,101344.91
2023-04-18T17:03:38.589Z,101349.44
2023-04-18T17:08:28.003Z,101354.69
2023-04-18T17:12:33.782Z,101362.00
2023-04-18T17:17:19.279Z,101357.69
2023-04-18T17:21:51.069Z,101362.13
2023-04-18T17:25:52.886Z,101362.13
2023-04-18T17:30:15.596Z,101366.72
2023-04-18T17:35:07.084Z,101366.72
2023-04-18T17:39:09.774Z,101359.66
2023-04-18T17:43:52.521Z,101361.66
2023-04-18T17:48:19.982Z,101372.28
2023-04-18T17:52:22.013Z,101371.38
2023-04-18T17:56:25.873Z,101371.41
2023-04-18T18:01:01.477Z,101362.75
2023-04-18T18:05:55.083Z,101375.19
2023-04-18T18:10:25.177Z,101365.50
2023-04-18T18:14:45.143Z,101372.63
2023-04-18T18:18:47.022Z,101369.19
2023-04-18T18:23:23.161Z,101369.25
2023-04-18T18:28:14.917Z,101368.53
2023-04-18T18:38:24.203Z,101373.69
2023-04-18T18:42:26.413Z,101379.81
2023-04-18T18:47:18.167Z,101372.78
2023-04-18T18:52:12.041Z,101378.88
2023-04-18T18:57:26.922Z,101380.69
2023-04-18T19:07:44.855Z,101382.72
2023-04-18T19:12:36.706Z,101388.09
2023-04-18T19:17:29.242Z,101384.44
2023-04-18T19:21:56.332Z,101388.91
2023-04-18T19:26:51.947Z,101385.38
2023-04-18T19:30:53.677Z,101380.88
2023-04-18T19:34:56.598Z,101382.78
2023-04-18T19:38:58.389Z,101380.06
2023-04-18T19:43:41.562Z,101385.38
2023-04-18T19:47:44.849Z,101372.03
2023-04-18T19:52:16.953Z,101367.59
2023-04-18T19:56:19.227Z,101364.81
2023-04-18T20:00:23.684Z,101366.38
2023-04-18T20:04:25.839Z,101373.50
2023-04-18T20:08:29.862Z,101370.81
2023-04-18T20:12:31.792Z,101377.00
2023-04-18T20:16:34.629Z,101367.25
2023-04-18T20:20:36.856Z,101365.50
2023-04-18T20:24:58.749Z,101357.56
2023-04-18T20:29:20.623Z,101364.66
2023-04-18T20:33:42.098Z,101357.72
2023-04-18T20:37:44.530Z,101354.88
2023-04-18T20:42:12.685Z,101360.13
2023-04-18T20:46:34.469Z,101354.88
2023-04-18T20:51:00.344Z,101355.69
2023-04-18T20:56:14.320Z,101354.81
2023-04-18T21:01:03.953Z,101358.34
2023-04-18T21:05:30.506Z,101346.94
2023-04-18T21:09:52.877Z,101354.88
2023-04-18T21:13:59.629Z,101344.25
2023-04-18T21:18:37.354Z,101345.06
2023-04-18T21:23:27.420Z,101338.97
2023-04-18T21:27:53.650Z,101338.97
2023-04-18T21:32:20.303Z,101335.47
2023-04-18T21:36:56.220Z,101325.63
2023-04-18T21:41:03.968Z,101328.34
2023-04-18T21:45:56.127Z,101331.16
2023-04-18T21:50:36.353Z,101329.50
2023-04-18T21:55:18.115Z,101316.38
2023-04-18T21:59:40.303Z,101317.94
2023-04-18T22:03:45.107Z,101315.19
2023-04-18T22:07:58.399Z,101300.19
2023-04-18T22:12:09.122Z,101296.72
2023-04-18T22:16:34.862Z,101297.78
2023-04-18T22:20:56.816Z,101297.25
2023-04-18T22:25:24.864Z,101292.03
2023-04-18T22:30:14.825Z,101290.34
2023-04-18T22:34:36.454Z,101280.75
2023-04-18T22:38:59.043Z,101279.94
2023-04-18T22:43:54.274Z,101273.25
2023-04-18T22:48:46.182Z,101284.97
2023-04-18T22:52:48.075Z,101278.06
2023-04-18T22:56:58.376Z,101277.34
2023-04-18T23:01:01.949Z,101276.53
2023-04-18T23:05:37.826Z,101274.72
2023-04-18T23:14:57.598Z,101270.56
2023-04-18T23:24:28.381Z,101264.88
2023-04-18T23:29:37.586Z,101254.28
2023-04-18T23:34:55.777Z,101255.25
2023-04-18T23:38:57.509Z,101254.13
2023-04-18T23:42:59.101Z,101242.59
2023-04-18T23:47:00.788Z,101238.34
2023-04-18T23:51:37.523Z,101234.38
2023-04-18T23:56:28.593Z,101240.03
